sensor_id;sensor_type;location;lat;lon;timestamp;P1;durP1;ratioP1;P2;durP2;ratioP2
10884;SDS011;5495;53.252;10.390;2023-02-28T00:07:37;5.87;;;4.30;;
10884;SDS011;5495;53.252;10.390;2023-02-28T00:10:35;6.43;;;4.20;;
10884;SDS011;5495;53.252;10.390;2023-02-28T00:13:36;6.77;;;3.47;;
10884;SDS011;5495;53.252;10.390;2023-02-28T00:16:19;6.40;;;4.03;;
10884;SDS011;5495;53.252;10.390;2023-02-28T00:18:54;5.33;;;3.50;;
10884;SDS011;5495;53.252;10.390;2023-02-28T00:21:37;7.53;;;3.70;;
10884;SDS011;5495;53.252;10.390;2023-02-28T00:24:21;6.83;;;3.80;;
10884;SDS011;5495;53.252;10.390;2023-02-28T00:27:17;6.03;;;3.83;;
10884;SDS011;5495;53.252;10.390;2023-02-28T06:50:19;8.03;;;5.03;;
10884;SDS011;5495;53.252;10.390;2023-02-28T06:53:31;11.37;;;5.53;;
10884;SDS011;5495;53.252;10.390;2023-02-28T07:25:23;10.10;;;6.37;;
10884;SDS011;5495;53.252;10.390;2023-02-28T07:27:56;15.73;;;6.20;;
10884;SDS011;5495;53.252;10.390;2023-02-28T07:30:32;8.13;;;5.50;;
10884;SDS011;5495;53.252;10.390;2023-02-28T07:33:07;11.50;;;5.57;;
10884;SDS011;5495;53.252;10.390;2023-02-28T07:35:45;9.43;;;5.53;;
10884;SDS011;5495;53.252;10.390;2023-02-28T07:38:19;8.73;;;5.93;;
10884;SDS011;5495;53.252;10.390;2023-02-28T07:41:04;7.97;;;5.30;;
10884;SDS011;5495;53.252;10.390;2023-02-28T07:43:48;9.33;;;6.33;;
10884;SDS011;5495;53.252;10.390;2023-02-28T07:46:31;7.27;;;4.97;;
10884;SDS011;5495;53.252;10.390;2023-02-28T07:49:03;10.73;;;5.57;;
10884;SDS011;5495;53.252;10.390;2023-02-28T07:51:38;11.17;;;4.77;;
10884;SDS011;5495;53.252;10.390;2023-02-28T07:54:14;8.80;;;5.40;;
10884;SDS011;5495;53.252;10.390;2023-02-28T07:56:43;8.87;;;5.43;;
10884;SDS011;5495;53.252;10.390;2023-02-28T07:59:41;7.33;;;5.07;;
10884;SDS011;5495;53.252;10.390;2023-02-28T08:06:56;9.87;;;5.03;;
10884;SDS011;5495;53.252;10.390;2023-02-28T08:08:43;10.00;;;4.87;;
10884;SDS011;5495;53.252;10.390;2023-02-28T08:11:39;8.27;;;4.20;;
10884;SDS011;5495;53.252;10.390;2023-02-28T08:14:22;8.13;;;4.97;;
10884;SDS011;5495;53.252;10.390;2023-02-28T08:17:16;7.40;;;4.20;;
10884;SDS011;5495;53.252;10.390;2023-02-28T08:19:48;7.63;;;4.63;;
10884;SDS011;5495;53.252;10.390;2023-02-28T08:22:25;8.37;;;4.50;;
10884;SDS011;5495;53.252;10.390;2023-02-28T08:25:00;6.50;;;4.53;;
10884;SDS011;5495;53.252;10.390;2023-02-28T08:27:35;6.50;;;4.10;;
10884;SDS011;5495;53.252;10.390;2023-02-28T08:30:04;7.83;;;4.40;;
10884;SDS011;5495;53.252;10.390;2023-02-28T08:32:44;6.07;;;3.53;;
10884;SDS011;5495;53.252;10.390;2023-02-28T08:35:18;5.63;;;3.60;;
10884;SDS011;5495;53.252;10.390;2023-02-28T08:38:05;6.67;;;3.63;;
10884;SDS011;5495;53.252;10.390;2023-02-28T08:40:40;6.73;;;4.00;;
10884;SDS011;5495;53.252;10.390;2023-02-28T08:43:10;6.10;;;3.90;;
10884;SDS011;5495;53.252;10.390;2023-02-28T08:45:42;6.67;;;3.77;;
10884;SDS011;5495;53.252;10.390;2023-02-28T08:48:19;5.03;;;3.70;;
10884;SDS011;5495;53.252;10.390;2023-02-28T08:50:59;6.43;;;3.73;;
10884;SDS011;5495;53.252;10.390;2023-02-28T08:53:41;3.90;;;3.10;;
10884;SDS011;5495;53.252;10.390;2023-02-28T08:56:16;6.73;;;4.07;;
10884;SDS011;5495;53.252;10.390;2023-02-28T08:58:46;4.43;;;3.37;;
10884;SDS011;5495;53.252;10.390;2023-02-28T09:01:21;5.97;;;3.77;;
10884;SDS011;5495;53.252;10.390;2023-02-28T09:03:55;5.73;;;3.60;;
10884;SDS011;5495;53.252;10.390;2023-02-28T09:07:30;5.70;;;3.47;;
10884;SDS011;5495;53.252;10.390;2023-02-28T09:10:06;5.83;;;3.83;;
10884;SDS011;5495;53.252;10.390;2023-02-28T09:12:59;7.07;;;3.60;;
10884;SDS011;5495;53.252;10.390;2023-02-28T09:15:40;6.03;;;3.60;;
10884;SDS011;5495;53.252;10.390;2023-02-28T09:18:12;5.30;;;3.23;;
10884;SDS011;5495;53.252;10.390;2023-02-28T09:20:44;7.27;;;3.63;;
10884;SDS011;5495;53.252;10.390;2023-02-28T09:23:24;4.83;;;3.60;;
10884;SDS011;5495;53.252;10.390;2023-02-28T09:25:54;6.27;;;3.77;;
10884;SDS011;5495;53.252;10.390;2023-02-28T09:28:22;6.33;;;3.43;;
10884;SDS011;5495;53.252;10.390;2023-02-28T09:30:57;6.20;;;3.50;;
10884;SDS011;5495;53.252;10.390;2023-02-28T09:33:25;4.60;;;3.27;;
10884;SDS011;5495;53.252;10.390;2023-02-28T09:35:57;5.13;;;3.23;;
10884;SDS011;5495;53.252;10.390;2023-02-28T09:38:42;5.07;;;3.43;;
10884;SDS011;5495;53.252;10.390;2023-02-28T09:41:13;3.77;;;3.00;;
10884;SDS011;5495;53.252;10.390;2023-02-28T09:43:44;6.77;;;3.40;;
10884;SDS011;5495;53.252;10.390;2023-02-28T09:46:29;4.07;;;2.60;;
10884;SDS011;5495;53.252;10.390;2023-02-28T09:49:01;3.63;;;2.77;;
10884;SDS011;5495;53.252;10.390;2023-02-28T09:51:37;5.03;;;2.37;;
10884;SDS011;5495;53.252;10.390;2023-02-28T09:54:13;3.33;;;2.33;;
10884;SDS011;5495;53.252;10.390;2023-02-28T09:56:45;3.90;;;2.30;;
10884;SDS011;5495;53.252;10.390;2023-02-28T09:59:25;4.07;;;2.30;;
10884;SDS011;5495;53.252;10.390;2023-02-28T10:02:04;4.00;;;2.37;;
10884;SDS011;5495;53.252;10.390;2023-02-28T10:04:44;4.20;;;2.37;;
10884;SDS011;5495;53.252;10.390;2023-02-28T10:07:30;7.57;;;3.13;;
10884;SDS011;5495;53.252;10.390;2023-02-28T10:10:18;2.20;;;1.30;;
10884;SDS011;5495;53.252;10.390;2023-02-28T10:12:51;2.30;;;1.30;;
10884;SDS011;5495;53.252;10.390;2023-02-28T10:15:21;3.60;;;1.50;;
10884;SDS011;5495;53.252;10.390;2023-02-28T10:17:53;1.83;;;1.20;;
10884;SDS011;5495;53.252;10.390;2023-02-28T10:20:26;2.37;;;1.40;;
10884;SDS011;5495;53.252;10.390;2023-02-28T10:23:02;4.17;;;1.67;;
10884;SDS011;5495;53.252;10.390;2023-02-28T10:28:49;4.47;;;1.70;;
10884;SDS011;5495;53.252;10.390;2023-02-28T10:42:20;3.23;;;1.63;;
10884;SDS011;5495;53.252;10.390;2023-02-28T10:47:40;2.13;;;1.53;;
10884;SDS011;5495;53.252;10.390;2023-02-28T10:54:40;3.40;;;1.50;;
10884;SDS011;5495;53.252;10.390;2023-02-28T10:57:16;4.37;;;1.80;;
10884;SDS011;5495;53.252;10.390;2023-02-28T11:00:06;2.70;;;1.70;;
10884;SDS011;5495;53.252;10.390;2023-02-28T11:02:47;3.90;;;2.07;;
10884;SDS011;5495;53.252;10.390;2023-02-28T11:05:25;3.77;;;2.10;;
10884;SDS011;5495;53.252;10.390;2023-02-28T11:11:22;3.60;;;2.00;;
10884;SDS011;5495;53.252;10.390;2023-02-28T11:17:14;2.97;;;1.80;;
10884;SDS011;5495;53.252;10.390;2023-02-28T11:19:53;3.57;;;2.13;;
10884;SDS011;5495;53.252;10.390;2023-02-28T11:22:24;3.40;;;2.00;;
10884;SDS011;5495;53.252;10.390;2023-02-28T11:24:56;3.37;;;2.10;;
10884;SDS011;5495;53.252;10.390;2023-02-28T11:27:39;6.53;;;2.10;;
10884;SDS011;5495;53.252;10.390;2023-02-28T11:33:26;2.23;;;1.57;;
10884;SDS011;5495;53.252;10.390;2023-02-28T11:36:00;2.40;;;1.97;;
10884;SDS011;5495;53.252;10.390;2023-02-28T11:38:43;3.30;;;1.33;;
10884;SDS011;5495;53.252;10.390;2023-02-28T11:41:23;2.80;;;1.90;;
10884;SDS011;5495;53.252;10.390;2023-02-28T11:44:06;2.10;;;1.27;;
10884;SDS011;5495;53.252;10.390;2023-02-28T11:46:47;4.13;;;1.83;;
10884;SDS011;5495;53.252;10.390;2023-02-28T11:49:25;1.87;;;1.33;;
10884;SDS011;5495;53.252;10.390;2023-02-28T11:52:05;1.10;;;1.00;;
10884;SDS011;5495;53.252;10.390;2023-02-28T11:55:05;2.03;;;0.90;;
10884;SDS011;5495;53.252;10.390;2023-02-28T12:01:04;0.93;;;0.83;;
10884;SDS011;5495;53.252;10.390;2023-02-28T12:03:50;1.83;;;1.10;;
10884;SDS011;5495;53.252;10.390;2023-02-28T12:10:08;2.43;;;1.33;;
10884;SDS011;5495;53.252;10.390;2023-02-28T12:12:52;1.80;;;1.30;;
10884;SDS011;5495;53.252;10.390;2023-02-28T12:15:50;3.73;;;1.50;;
10884;SDS011;5495;53.252;10.390;2023-02-28T12:28:26;2.97;;;1.43;;
10884;SDS011;5495;53.252;10.390;2023-02-28T12:34:06;2.40;;;1.50;;
10884;SDS011;5495;53.252;10.390;2023-02-28T12:37:15;1.40;;;1.10;;
10884;SDS011;5495;53.252;10.390;2023-02-28T12:40:20;1.97;;;1.23;;
10884;SDS011;5495;53.252;10.390;2023-02-28T12:43:07;2.03;;;1.20;;
10884;SDS011;5495;53.252;10.390;2023-02-28T12:45:53;3.13;;;1.43;;
10884;SDS011;5495;53.252;10.390;2023-02-28T12:48:35;2.77;;;1.40;;
10884;SDS011;5495;53.252;10.390;2023-02-28T12:51:32;2.03;;;1.20;;
10884;SDS011;5495;53.252;10.390;2023-02-28T12:54:22;2.53;;;1.30;;
10884;SDS011;5495;53.252;10.390;2023-02-28T12:57:02;1.47;;;1.20;;
10884;SDS011;5495;53.252;10.390;2023-02-28T12:59:48;1.77;;;1.10;;
10884;SDS011;5495;53.252;10.390;2023-02-28T13:02:48;2.23;;;1.07;;
10884;SDS011;5495;53.252;10.390;2023-02-28T13:05:46;1.53;;;1.07;;
10884;SDS011;5495;53.252;10.390;2023-02-28T13:12:24;2.23;;;1.20;;
10884;SDS011;5495;53.252;10.390;2023-02-28T13:15:00;2.17;;;1.20;;
10884;SDS011;5495;53.252;10.390;2023-02-28T13:17:49;1.80;;;1.20;;
10884;SDS011;5495;53.252;10.390;2023-02-28T13:20:24;2.80;;;1.30;;
10884;SDS011;5495;53.252;10.390;2023-02-28T13:23:04;2.13;;;1.53;;
10884;SDS011;5495;53.252;10.390;2023-02-28T13:26:08;1.93;;;1.40;;
10884;SDS011;5495;53.252;10.390;2023-02-28T13:44:14;1.73;;;1.33;;
10884;SDS011;5495;53.252;10.390;2023-02-28T13:49:53;2.90;;;1.30;;
10884;SDS011;5495;53.252;10.390;2023-02-28T13:52:51;1.70;;;1.20;;
10884;SDS011;5495;53.252;10.390;2023-02-28T13:55:41;4.13;;;1.40;;
10884;SDS011;5495;53.252;10.390;2023-02-28T13:58:21;2.50;;;1.33;;
10884;SDS011;5495;53.252;10.390;2023-02-28T14:01:11;2.37;;;1.17;;
10884;SDS011;5495;53.252;10.390;2023-02-28T14:06:48;2.20;;;1.40;;
10884;SDS011;5495;53.252;10.390;2023-02-28T14:09:31;3.50;;;1.47;;
10884;SDS011;5495;53.252;10.390;2023-02-28T14:15:02;4.03;;;1.20;;
10884;SDS011;5495;53.252;10.390;2023-02-28T14:17:31;2.23;;;1.27;;
10884;SDS011;5495;53.252;10.390;2023-02-28T14:19:59;1.70;;;1.20;;
10884;SDS011;5495;53.252;10.390;2023-02-28T14:22:39;1.97;;;1.17;;
10884;SDS011;5495;53.252;10.390;2023-02-28T14:25:20;1.47;;;1.10;;
10884;SDS011;5495;53.252;10.390;2023-02-28T14:27:57;4.03;;;1.67;;
10884;SDS011;5495;53.252;10.390;2023-02-28T14:30:57;2.33;;;1.20;;
10884;SDS011;5495;53.252;10.390;2023-02-28T14:33:35;2.33;;;1.20;;
10884;SDS011;5495;53.252;10.390;2023-02-28T14:36:16;2.17;;;1.20;;
10884;SDS011;5495;53.252;10.390;2023-02-28T14:38:51;1.70;;;1.03;;
10884;SDS011;5495;53.252;10.390;2023-02-28T14:41:31;2.77;;;1.30;;
10884;SDS011;5495;53.252;10.390;2023-02-28T14:44:13;2.17;;;1.30;;
10884;SDS011;5495;53.252;10.390;2023-02-28T14:46:42;4.10;;;1.30;;
10884;SDS011;5495;53.252;10.390;2023-02-28T14:49:15;1.53;;;1.20;;
10884;SDS011;5495;53.252;10.390;2023-02-28T14:51:49;2.33;;;1.43;;
10884;SDS011;5495;53.252;10.390;2023-02-28T14:54:27;1.37;;;1.03;;
10884;SDS011;5495;53.252;10.390;2023-02-28T14:56:57;1.20;;;1.00;;
10884;SDS011;5495;53.252;10.390;2023-02-28T14:59:26;1.93;;;1.00;;
10884;SDS011;5495;53.252;10.390;2023-02-28T15:04:52;1.67;;;1.00;;
10884;SDS011;5495;53.252;10.390;2023-02-28T15:07:39;3.07;;;1.00;;
10884;SDS011;5495;53.252;10.390;2023-02-28T15:10:10;2.37;;;0.90;;
10884;SDS011;5495;53.252;10.390;2023-02-28T15:12:49;2.50;;;0.97;;
10884;SDS011;5495;53.252;10.390;2023-02-28T15:15:24;2.87;;;1.10;;
10884;SDS011;5495;53.252;10.390;2023-02-28T15:17:56;2.83;;;1.03;;
10884;SDS011;5495;53.252;10.390;2023-02-28T15:20:25;2.40;;;1.17;;
10884;SDS011;5495;53.252;10.390;2023-02-28T15:22:56;2.37;;;1.00;;
10884;SDS011;5495;53.252;10.390;2023-02-28T15:25:24;2.00;;;1.03;;
10884;SDS011;5495;53.252;10.390;2023-02-28T15:27:55;2.47;;;0.70;;
10884;SDS011;5495;53.252;10.390;2023-02-28T15:30:25;1.27;;;1.00;;
10884;SDS011;5495;53.252;10.390;2023-02-28T15:33:17;1.50;;;1.10;;
10884;SDS011;5495;53.252;10.390;2023-02-28T15:35:48;2.13;;;1.10;;
10884;SDS011;5495;53.252;10.390;2023-02-28T15:38:24;2.00;;;0.93;;
10884;SDS011;5495;53.252;10.390;2023-02-28T15:40:58;1.47;;;0.90;;
10884;SDS011;5495;53.252;10.390;2023-02-28T15:43:28;1.00;;;0.80;;
10884;SDS011;5495;53.252;10.390;2023-02-28T15:46:00;2.40;;;1.40;;
10884;SDS011;5495;53.252;10.390;2023-02-28T15:48:30;1.70;;;0.90;;
10884;SDS011;5495;53.252;10.390;2023-02-28T15:51:05;3.57;;;1.40;;
10884;SDS011;5495;53.252;10.390;2023-02-28T15:53:54;2.20;;;0.93;;
10884;SDS011;5495;53.252;10.390;2023-02-28T15:56:34;1.00;;;0.90;;
10884;SDS011;5495;53.252;10.390;2023-02-28T15:59:30;2.53;;;1.20;;
10884;SDS011;5495;53.252;10.390;2023-02-28T16:02:11;1.67;;;1.10;;
10884;SDS011;5495;53.252;10.390;2023-02-28T16:07:54;1.33;;;1.10;;
10884;SDS011;5495;53.252;10.390;2023-02-28T16:10:22;2.70;;;1.10;;
10884;SDS011;5495;53.252;10.390;2023-02-28T16:13:01;3.33;;;1.10;;
10884;SDS011;5495;53.252;10.390;2023-02-28T16:15:34;2.83;;;1.30;;
10884;SDS011;5495;53.252;10.390;2023-02-28T16:18:23;3.53;;;1.33;;
10884;SDS011;5495;53.252;10.390;2023-02-28T16:20:51;1.90;;;1.20;;
10884;SDS011;5495;53.252;10.390;2023-02-28T16:23:19;2.37;;;1.30;;
10884;SDS011;5495;53.252;10.390;2023-02-28T16:28:36;2.80;;;1.40;;
10884;SDS011;5495;53.252;10.390;2023-02-28T16:31:06;2.77;;;1.50;;
10884;SDS011;5495;53.252;10.390;2023-02-28T16:33:44;2.83;;;1.47;;
10884;SDS011;5495;53.252;10.390;2023-02-28T16:36:17;2.90;;;1.57;;
10884;SDS011;5495;53.252;10.390;2023-02-28T16:38:48;1.70;;;1.40;;
10884;SDS011;5495;53.252;10.390;2023-02-28T16:41:17;2.93;;;1.37;;
10884;SDS011;5495;53.252;10.390;2023-02-28T16:43:52;1.60;;;1.10;;
10884;SDS011;5495;53.252;10.390;2023-02-28T16:46:33;3.03;;;1.30;;
10884;SDS011;5495;53.252;10.390;2023-02-28T16:49:03;2.70;;;1.33;;
10884;SDS011;5495;53.252;10.390;2023-02-28T16:51:31;3.10;;;1.40;;
10884;SDS011;5495;53.252;10.390;2023-02-28T16:54:05;2.83;;;1.70;;
10884;SDS011;5495;53.252;10.390;2023-02-28T16:56:39;4.27;;;2.00;;
10884;SDS011;5495;53.252;10.390;2023-02-28T16:59:12;3.70;;;2.80;;
10884;SDS011;5495;53.252;10.390;2023-02-28T17:20:25;5.50;;;2.70;;
10884;SDS011;5495;53.252;10.390;2023-02-28T17:23:11;4.63;;;2.70;;
10884;SDS011;5495;53.252;10.390;2023-02-28T17:25:41;3.93;;;2.80;;
10884;SDS011;5495;53.252;10.390;2023-02-28T17:28:21;4.10;;;2.50;;
10884;SDS011;5495;53.252;10.390;2023-02-28T17:31:24;5.10;;;2.90;;
10884;SDS011;5495;53.252;10.390;2023-02-28T17:34:32;5.90;;;2.97;;
10884;SDS011;5495;53.252;10.390;2023-02-28T17:40:22;7.13;;;3.70;;
10884;SDS011;5495;53.252;10.390;2023-02-28T17:43:10;8.87;;;4.60;;
10884;SDS011;5495;53.252;10.390;2023-02-28T17:46:08;6.57;;;4.50;;
10884;SDS011;5495;53.252;10.390;2023-02-28T17:55:35;7.30;;;3.87;;
10884;SDS011;5495;53.252;10.390;2023-02-28T18:02:18;5.63;;;3.43;;
10884;SDS011;5495;53.252;10.390;2023-02-28T18:05:23;6.30;;;3.07;;
10884;SDS011;5495;53.252;10.390;2023-02-28T18:08:18;5.10;;;3.43;;
10884;SDS011;5495;53.252;10.390;2023-02-28T18:14:01;6.93;;;3.80;;
10884;SDS011;5495;53.252;10.390;2023-02-28T18:19:57;10.27;;;4.03;;
10884;SDS011;5495;53.252;10.390;2023-02-28T18:23:15;7.23;;;3.70;;
10884;SDS011;5495;53.252;10.390;2023-02-28T18:29:26;5.03;;;3.63;;
10884;SDS011;5495;53.252;10.390;2023-02-28T18:32:20;5.57;;;3.13;;
10884;SDS011;5495;53.252;10.390;2023-02-28T18:38:39;11.10;;;3.80;;
10884;SDS011;5495;53.252;10.390;2023-02-28T18:51:02;7.00;;;3.57;;
10884;SDS011;5495;53.252;10.390;2023-02-28T20:28:03;10.33;;;6.60;;
